Belgrade, MT (59714)

8:14 AM MST on February 10, 2016 (GMT -0700)
Belgrade Gardens | | Change Station
CLOSE
Current Station
Personal Weather Station
Location: Belgrade, MT
Elevation: 4386 ft
Nearby Weather Stations

Elev 4386 ft 45.80 °N, 111.21 °W | Updated 16 seconds ago

Clear
Clear
18.9 °F
Feels Like 19 °F
N
2.2
Wind Variable Wind from SSE
Gusts 2.7 mph

Today
High -- | Low -- °F
--% Chance of Precip.
Yesterday
High -- | Low -- °F
Precip. -- in
Pressure 30.38 in
Visibility 10.0 miles
Clouds Clear
Windchill 19 °F
Dew Point 18 °F
Humidity 94%
Rainfall 0.00 in
Snow Depth Not available.
7:35 AM 5:43 PM
Waxing Crescent, 6% visible
METAR KBZN 101456Z 14005KT 10SM CLR M09/M11 A3022 RMK AO2 SLP287 T10891111 50001
Pressure 30.38 in
Visibility 10.0 miles
Clouds Clear
Windchill 19 °F
Dew Point 18 °F
Humidity 94%
Rainfall 0.00 in
Snow Depth Not available.
7:35 AM 5:43 PM
Waxing Crescent, 6% visible
METAR KBZN 101456Z 14005KT 10SM CLR M09/M11 A3022 RMK AO2 SLP287 T10891111 50001

10-Day Weather Forecast

Almanac

Astronomy

Feb. 10, 2016 Rise Set
Actual Time
Civil Twilight
Nautical Twilight
Astronomical Twilight
Moon
Length of Visible Light
Length of Day
Tomorrow will be .
, % of the Moon is Illuminated

Today's Extremes

State Highs State Lows

Community

WunderPhotos

Upload Photos

1,891,857 photos uploaded!

WunderBlog® & News

Nearby

Air Quality

  Air Quality AQ Index Pollutant
Not available.

Snow Depth

Station Depth Elevation

Earthquake Activity

City Distance Mag. Time & Date
Minimum magnitude displayed is 2.5.

Coastal Water Temperatures

Place Temperature

Stations

Nearby Weather Stations

Station Location Temp. Windchill Dew Point Humidity Wind Precip. Elev Updated Type
                   

Watches & Warnings

There are currently no watches in effect.